createdAt,value
2022-10-02T00:02:24.557Z,4.43
2022-10-02T00:05:14.179Z,4.27
2022-10-02T00:07:49.802Z,3.83
2022-10-02T00:10:22.865Z,4.30
2022-10-02T00:12:54.918Z,4.50
2022-10-02T00:15:27.977Z,3.83
2022-10-02T00:17:58.406Z,4.87
2022-10-02T00:20:33.576Z,3.83
2022-10-02T00:23:26.446Z,4.33
2022-10-02T00:26:12.953Z,5.07
2022-10-02T00:28:53.222Z,4.17
2022-10-02T00:31:33.920Z,4.70
2022-10-02T00:34:12.985Z,4.43
2022-10-02T00:37:10.955Z,4.00
2022-10-02T00:40:03.433Z,3.93
2022-10-02T00:42:57.707Z,4.10
2022-10-02T00:45:42.376Z,3.67
2022-10-02T00:48:34.779Z,3.97
2022-10-02T00:51:26.042Z,4.00
2022-10-02T00:54:23.328Z,3.90
2022-10-02T00:57:10.008Z,3.80
2022-10-02T00:59:58.201Z,3.70
2022-10-02T01:02:30.678Z,3.80
2022-10-02T01:05:11.138Z,4.20
2022-10-02T01:07:42.090Z,4.10
2022-10-02T01:10:11.360Z,3.50
2022-10-02T01:12:38.495Z,3.80
2022-10-02T01:15:16.635Z,3.60
2022-10-02T01:17:43.147Z,3.47
2022-10-02T01:20:28.872Z,3.93
2022-10-02T01:23:05.310Z,3.83
2022-10-02T01:25:32.256Z,3.73
2022-10-02T01:27:58.766Z,3.30
2022-10-02T01:30:25.451Z,3.60
2022-10-02T01:33:03.892Z,3.83
2022-10-02T01:35:33.570Z,3.93
2022-10-02T01:38:04.556Z,3.90
2022-10-02T01:40:33.687Z,3.70
2022-10-02T01:43:07.505Z,4.03
2022-10-02T01:45:58.322Z,3.53
2022-10-02T01:48:37.046Z,3.63
2022-10-02T01:51:42.304Z,3.00
2022-10-02T01:54:22.269Z,3.70
2022-10-02T01:56:58.356Z,3.20
2022-10-02T01:59:24.695Z,4.33
2022-10-02T02:02:11.201Z,3.87
2022-10-02T02:04:49.726Z,3.50
2022-10-02T02:07:37.967Z,3.57
2022-10-02T02:10:13.956Z,3.60
2022-10-02T02:12:49.446Z,3.03
2022-10-02T02:15:25.240Z,3.97
2022-10-02T02:18:00.679Z,4.03
2022-10-02T02:20:36.316Z,3.47
2022-10-02T02:23:11.292Z,3.73
2022-10-02T02:25:40.848Z,3.37
2022-10-02T02:28:12.433Z,3.53
2022-10-02T02:30:41.672Z,3.43
2022-10-02T02:33:14.451Z,3.17
2022-10-02T02:35:47.821Z,4.23
2022-10-02T02:38:24.955Z,4.20
2022-10-02T02:40:52.033Z,3.77
2022-10-02T02:43:24.739Z,3.83
2022-10-02T02:46:03.470Z,3.80
2022-10-02T02:48:36.799Z,3.60
2022-10-02T02:51:32.312Z,3.70
2022-10-02T02:54:21.538Z,4.13
2022-10-02T02:56:49.942Z,4.00
2022-10-02T02:59:19.061Z,3.67
2022-10-02T03:01:45.608Z,4.50
2022-10-02T03:04:13.875Z,4.00
2022-10-02T03:06:47.137Z,3.73
2022-10-02T03:09:19.263Z,4.60
2022-10-02T03:12:04.613Z,3.70
2022-10-02T03:14:59.895Z,4.20
2022-10-02T03:17:44.195Z,4.70
2022-10-02T03:20:41.644Z,3.73
2022-10-02T03:23:29.772Z,3.97
2022-10-02T03:26:24.587Z,4.17
2022-10-02T03:28:57.469Z,4.57
2022-10-02T03:31:28.496Z,3.60
2022-10-02T03:33:58.935Z,4.20
2022-10-02T03:36:26.009Z,3.97
2022-10-02T03:39:20.252Z,4.47
2022-10-02T03:41:43.304Z,3.70
2022-10-02T03:44:09.855Z,4.13
2022-10-02T03:46:36.490Z,3.80
2022-10-02T03:49:03.103Z,3.77
2022-10-02T03:51:30.640Z,3.23
2022-10-02T03:53:57.041Z,3.40
2022-10-02T03:56:56.804Z,3.73
2022-10-02T03:59:48.190Z,3.30
2022-10-02T04:02:38.216Z,4.50
2022-10-02T04:05:22.755Z,6.10
2022-10-02T04:07:54.620Z,6.10
2022-10-02T04:10:29.841Z,4.93
2022-10-02T04:13:10.737Z,5.53
2022-10-02T04:15:51.461Z,5.30
2022-10-02T04:18:24.259Z,6.17
2022-10-02T04:20:58.142Z,5.07
2022-10-02T04:23:32.071Z,5.73
2022-10-02T04:26:03.196Z,5.37
2022-10-02T04:28:41.255Z,4.93
2022-10-02T04:31:13.064Z,4.60
2022-10-02T04:33:40.563Z,5.07
2022-10-02T04:36:34.592Z,5.30
2022-10-02T04:39:35.032Z,6.37
2022-10-02T04:42:49.365Z,6.03
2022-10-02T04:45:28.492Z,4.63
2022-10-02T04:48:24.232Z,5.10
2022-10-02T04:51:15.105Z,4.80
2022-10-02T04:53:56.505Z,4.23
2022-10-02T04:56:50.179Z,4.43
2022-10-02T04:59:52.936Z,4.40
2022-10-02T05:02:47.406Z,4.10
2022-10-02T05:05:23.431Z,4.57
2022-10-02T05:07:58.755Z,4.43
2022-10-02T05:10:34.123Z,3.90
2022-10-02T05:13:13.762Z,4.73
2022-10-02T05:15:54.907Z,4.07
2022-10-02T05:18:33.517Z,3.30
2022-10-02T05:21:18.769Z,3.60
2022-10-02T05:24:00.295Z,4.43
2022-10-02T05:26:48.578Z,4.10
2022-10-02T05:29:39.613Z,4.00
2022-10-02T05:32:18.069Z,4.37
2022-10-02T05:34:57.763Z,5.37
2022-10-02T05:38:01.284Z,4.23
2022-10-02T05:40:32.240Z,3.67
2022-10-02T05:43:08.317Z,3.80
2022-10-02T05:45:40.886Z,4.30
2022-10-02T05:48:23.387Z,4.30
2022-10-02T05:50:54.148Z,4.37
2022-10-02T05:53:32.730Z,3.93
2022-10-02T05:56:06.744Z,4.30
2022-10-02T05:58:38.071Z,3.87
2022-10-02T06:01:15.157Z,3.80
2022-10-02T06:03:48.979Z,3.87
2022-10-02T06:06:23.830Z,3.90
2022-10-02T06:08:58.784Z,3.70
2022-10-02T06:11:41.016Z,4.20
2022-10-02T06:14:12.736Z,3.57
2022-10-02T06:16:44.301Z,4.17
2022-10-02T06:19:23.447Z,3.77
2022-10-02T06:21:57.248Z,3.50
2022-10-02T06:24:44.896Z,3.67
2022-10-02T06:27:17.932Z,3.37
2022-10-02T06:29:51.748Z,2.97
2022-10-02T06:32:38.035Z,3.50
2022-10-02T06:35:16.198Z,3.57
2022-10-02T06:38:07.150Z,3.20
2022-10-02T06:40:45.709Z,3.73
2022-10-02T06:43:24.663Z,3.07
2022-10-02T06:46:07.109Z,3.00
2022-10-02T06:49:22.231Z,2.63
2022-10-02T06:51:57.680Z,2.60
2022-10-02T06:54:48.713Z,2.77
2022-10-02T06:57:33.148Z,2.67
2022-10-02T07:00:12.547Z,2.40
2022-10-02T07:03:23.643Z,2.60
2022-10-02T07:06:11.881Z,2.33
2022-10-02T07:09:01.075Z,2.67
2022-10-02T07:11:51.746Z,2.57
2022-10-02T07:14:27.857Z,2.30
2022-10-02T07:17:19.252Z,3.17
2022-10-02T07:20:06.194Z,2.20
2022-10-02T07:22:51.411Z,2.50
2022-10-02T07:25:58.791Z,2.30
2022-10-02T07:28:52.803Z,2.67
2022-10-02T07:31:49.772Z,2.40
2022-10-02T07:34:25.308Z,2.33
2022-10-02T07:37:29.340Z,2.47
2022-10-02T07:40:29.077Z,2.30
2022-10-02T07:43:49.179Z,2.47
2022-10-02T07:46:18.634Z,2.27
2022-10-02T07:49:13.954Z,2.40
2022-10-02T07:51:53.567Z,1.93
2022-10-02T07:54:41.145Z,3.03
2022-10-02T07:57:13.442Z,2.10
2022-10-02T07:59:43.599Z,2.20
2022-10-02T08:02:24.940Z,2.20
2022-10-02T08:04:58.827Z,2.77
2022-10-02T08:07:26.906Z,2.30
2022-10-02T08:09:55.011Z,2.20
2022-10-02T08:12:32.124Z,1.90
2022-10-02T08:14:59.894Z,1.83
2022-10-02T08:17:32.438Z,2.10
2022-10-02T08:20:04.882Z,1.83
2022-10-02T08:22:39.212Z,1.97
2022-10-02T08:25:13.223Z,2.00
2022-10-02T08:27:50.155Z,2.20
2022-10-02T08:30:16.798Z,2.23
2022-10-02T08:32:43.869Z,1.50
2022-10-02T08:35:19.549Z,1.93
2022-10-02T08:38:30.823Z,1.90
2022-10-02T08:41:18.842Z,2.00
2022-10-02T08:44:10.179Z,1.77
2022-10-02T08:47:02.466Z,1.83
2022-10-02T08:49:54.887Z,1.80
2022-10-02T08:53:08.867Z,1.90
2022-10-02T08:55:53.001Z,2.03
2022-10-02T08:58:44.031Z,2.70
2022-10-02T09:01:32.695Z,2.23
2022-10-02T09:04:17.910Z,2.23
2022-10-02T09:07:24.787Z,2.87
2022-10-02T09:10:29.581Z,2.20
2022-10-02T09:13:19.350Z,2.17
2022-10-02T09:16:00.873Z,2.23
2022-10-02T09:18:55.542Z,2.80
2022-10-02T09:21:56.173Z,2.03
2022-10-02T09:24:56.152Z,2.30
2022-10-02T09:27:57.773Z,2.10
2022-10-02T09:30:42.928Z,2.10
2022-10-02T09:33:31.071Z,2.10
2022-10-02T09:36:30.818Z,2.37
2022-10-02T09:39:18.304Z,2.37
2022-10-02T09:42:09.868Z,2.03
2022-10-02T09:45:11.403Z,2.30
2022-10-02T09:47:53.232Z,2.27
2022-10-02T09:50:38.028Z,2.17
2022-10-02T09:53:44.463Z,2.50
2022-10-02T09:56:34.849Z,2.43
2022-10-02T09:59:20.270Z,2.60
2022-10-02T10:02:25.466Z,2.33
2022-10-02T10:05:19.839Z,2.73
2022-10-02T10:08:06.235Z,2.10
2022-10-02T10:10:41.723Z,2.53
2022-10-02T10:13:08.023Z,2.40
2022-10-02T10:16:19.042Z,8.90
2022-10-02T10:19:09.898Z,2.90
2022-10-02T10:22:02.192Z,2.30
2022-10-02T10:25:03.214Z,2.50
2022-10-02T10:27:45.000Z,2.33
2022-10-02T10:30:48.874Z,2.40
2022-10-02T10:33:18.122Z,2.20
2022-10-02T10:36:45.894Z,2.00
2022-10-02T10:39:47.783Z,2.23
2022-10-02T10:42:24.254Z,2.20
2022-10-02T10:45:18.262Z,2.60
2022-10-02T10:48:19.034Z,3.00
2022-10-02T10:50:52.568Z,1.90
2022-10-02T10:53:51.861Z,2.17
2022-10-02T10:56:46.205Z,2.50
2022-10-02T10:59:43.252Z,2.00
2022-10-02T11:02:22.995Z,2.17
2022-10-02T11:05:29.053Z,2.10
2022-10-02T11:08:06.424Z,1.97
2022-10-02T11:10:56.237Z,2.10
2022-10-02T11:13:44.790Z,2.47
2022-10-02T11:16:33.798Z,2.20
2022-10-02T11:19:22.119Z,1.80
2022-10-02T11:22:00.454Z,2.70
2022-10-02T11:25:13.150Z,2.30
2022-10-02T11:27:51.526Z,2.93
2022-10-02T11:30:41.890Z,2.40
2022-10-02T11:33:33.160Z,2.33
2022-10-02T11:36:05.322Z,2.03
2022-10-02T11:38:59.659Z,2.67
2022-10-02T11:42:05.523Z,2.40
2022-10-02T11:44:47.121Z,2.20
2022-10-02T11:47:46.844Z,2.23
2022-10-02T11:50:25.413Z,1.90
2022-10-02T11:53:04.157Z,2.87
2022-10-02T11:56:08.006Z,2.67
2022-10-02T11:59:18.348Z,2.60
2022-10-02T12:01:47.430Z,2.67
2022-10-02T12:04:57.152Z,3.00
2022-10-02T12:07:38.657Z,2.60
2022-10-02T12:10:28.334Z,2.10
2022-10-02T12:13:16.010Z,2.90
2022-10-02T12:16:19.832Z,2.33
2022-10-02T12:19:03.207Z,2.40
2022-10-02T12:21:51.255Z,2.10
2022-10-02T12:25:04.221Z,2.63
2022-10-02T12:28:11.665Z,2.10
2022-10-02T12:31:00.316Z,2.20
2022-10-02T12:33:44.699Z,2.47
2022-10-02T12:36:34.912Z,2.80
2022-10-02T12:39:30.540Z,3.00
2022-10-02T12:42:06.426Z,2.30
2022-10-02T12:44:35.388Z,2.70
2022-10-02T12:47:55.710Z,2.33
2022-10-02T12:50:23.280Z,2.77
2022-10-02T12:53:29.010Z,2.60
2022-10-02T12:56:07.215Z,2.50
2022-10-02T12:58:56.619Z,2.73
2022-10-02T13:01:49.223Z,2.80
2022-10-02T13:04:53.052Z,2.50
2022-10-02T13:07:52.040Z,2.70
2022-10-02T13:10:47.055Z,2.73
2022-10-02T13:13:31.638Z,2.93
2022-10-02T13:16:21.859Z,3.03
2022-10-02T13:18:57.671Z,3.10
2022-10-02T13:21:24.092Z,2.90
2022-10-02T13:24:08.314Z,2.97
2022-10-02T13:26:34.739Z,3.40
2022-10-02T13:29:16.318Z,2.97
2022-10-02T13:32:11.661Z,3.03
2022-10-02T13:35:01.370Z,3.00
2022-10-02T13:38:08.266Z,3.13
2022-10-02T13:41:08.951Z,3.30
2022-10-02T13:44:01.645Z,2.73
2022-10-02T13:46:46.399Z,2.60
2022-10-02T13:49:31.626Z,2.80
2022-10-02T13:52:35.225Z,2.60
2022-10-02T13:55:18.826Z,2.57
2022-10-02T13:58:10.186Z,2.90
2022-10-02T14:00:58.419Z,2.93
2022-10-02T14:03:43.347Z,3.37
2022-10-02T14:06:22.061Z,2.50
2022-10-02T14:09:11.639Z,2.73
2022-10-02T14:11:38.251Z,2.57
2022-10-02T14:14:20.931Z,3.27
2022-10-02T14:17:13.049Z,3.00
2022-10-02T14:19:52.813Z,3.13
2022-10-02T14:22:46.782Z,3.00
2022-10-02T14:25:33.382Z,3.77
2022-10-02T14:28:22.357Z,3.30
2022-10-02T14:31:07.420Z,2.90
2022-10-02T14:34:11.622Z,3.40
2022-10-02T14:37:06.235Z,3.63
2022-10-02T14:39:39.094Z,3.80
2022-10-02T14:42:28.535Z,3.10
2022-10-02T14:45:04.079Z,3.10
2022-10-02T14:47:42.319Z,3.00
2022-10-02T14:50:41.436Z,2.60
2022-10-02T14:53:28.668Z,4.27
2022-10-02T14:56:18.085Z,3.40
2022-10-02T14:59:12.194Z,2.80
2022-10-02T15:02:10.160Z,3.27
2022-10-02T15:04:50.935Z,3.00
2022-10-02T15:07:23.015Z,3.73
2022-10-02T15:10:01.386Z,3.53
2022-10-02T15:12:43.755Z,3.10
2022-10-02T15:15:33.475Z,3.13
2022-10-02T15:18:03.344Z,3.13
2022-10-02T15:20:38.614Z,3.27
2022-10-02T15:23:10.479Z,3.10
2022-10-02T15:25:58.405Z,3.47
2022-10-02T15:29:06.651Z,3.50
2022-10-02T15:31:59.362Z,4.03
2022-10-02T15:35:03.539Z,3.53
2022-10-02T15:37:46.081Z,2.83
2022-10-02T15:40:12.571Z,3.23
2022-10-02T15:42:52.390Z,3.63
2022-10-02T15:45:55.578Z,3.77
2022-10-02T15:48:36.902Z,3.80
2022-10-02T15:51:28.257Z,4.13
2022-10-02T15:54:07.702Z,3.83
2022-10-02T15:56:59.387Z,3.30
2022-10-02T15:59:39.980Z,3.20
2022-10-02T16:02:06.537Z,3.53
2022-10-02T16:04:50.262Z,3.43
2022-10-02T16:07:51.008Z,3.37
2022-10-02T16:10:28.207Z,4.30
2022-10-02T16:13:12.762Z,4.00
2022-10-02T16:16:04.309Z,3.40
2022-10-02T16:18:36.499Z,3.40
2022-10-02T16:21:26.421Z,3.80
2022-10-02T16:24:20.239Z,3.23
2022-10-02T16:27:28.597Z,4.03
2022-10-02T16:30:17.259Z,3.83
2022-10-02T16:33:06.461Z,3.70
2022-10-02T16:35:50.755Z,2.77
2022-10-02T16:38:22.515Z,3.67
2022-10-02T16:41:03.379Z,3.30
2022-10-02T16:43:48.574Z,3.63
2022-10-02T16:46:45.936Z,3.40
2022-10-02T16:49:44.222Z,3.30
2022-10-02T16:52:31.310Z,3.40
2022-10-02T16:55:15.589Z,3.70
2022-10-02T16:57:41.955Z,3.50
2022-10-02T17:00:36.208Z,3.73
2022-10-02T17:03:20.473Z,3.97
2022-10-02T17:05:53.126Z,3.90
2022-10-02T17:08:39.150Z,3.40
2022-10-02T17:11:18.635Z,3.60
2022-10-02T17:13:58.519Z,4.10
2022-10-02T17:16:36.809Z,3.80
2022-10-02T17:19:19.765Z,4.53
2022-10-02T17:21:53.836Z,4.10
2022-10-02T17:24:31.592Z,4.43
2022-10-02T17:27:16.069Z,4.87
2022-10-02T17:30:03.879Z,5.07
2022-10-02T17:32:51.278Z,4.70
2022-10-02T17:35:33.956Z,4.50
2022-10-02T17:38:27.682Z,4.17
2022-10-02T17:41:12.683Z,4.67
2022-10-02T17:43:50.240Z,4.80
2022-10-02T17:46:35.726Z,5.17
2022-10-02T17:49:24.699Z,5.10
2022-10-02T17:52:37.625Z,5.83
2022-10-02T17:55:32.514Z,4.50
2022-10-02T17:58:23.247Z,4.47
2022-10-02T18:01:07.652Z,5.03
2022-10-02T18:04:17.418Z,4.77
2022-10-02T18:06:49.540Z,4.80
2022-10-02T18:09:27.952Z,5.20
2022-10-02T18:12:20.954Z,5.10
2022-10-02T18:15:12.097Z,5.17
2022-10-02T18:18:09.835Z,5.83
2022-10-02T18:20:57.300Z,4.87
2022-10-02T18:23:59.662Z,5.97
2022-10-02T18:26:28.886Z,5.43
2022-10-02T18:29:11.119Z,5.80
2022-10-02T18:31:55.902Z,5.10
2022-10-02T18:34:44.321Z,4.70
2022-10-02T18:37:11.342Z,5.50
2022-10-02T18:39:42.120Z,6.07
2022-10-02T18:42:50.187Z,4.90
2022-10-02T18:45:44.464Z,5.17
2022-10-02T18:48:19.686Z,5.40
2022-10-02T18:51:15.173Z,5.47
2022-10-02T18:54:19.467Z,5.47
2022-10-02T18:57:07.459Z,5.87
2022-10-02T18:59:53.187Z,5.53
2022-10-02T19:02:32.031Z,5.43
2022-10-02T19:05:22.979Z,5.50
2022-10-02T19:07:49.377Z,4.57
2022-10-02T19:10:21.198Z,5.67
2022-10-02T19:12:54.072Z,5.10
2022-10-02T19:15:27.835Z,5.17
2022-10-02T19:18:04.460Z,5.13
2022-10-02T19:20:48.107Z,6.13
2022-10-02T19:23:32.083Z,5.60
2022-10-02T19:26:04.684Z,5.40
2022-10-02T19:28:33.324Z,5.50
2022-10-02T19:31:04.836Z,6.03
2022-10-02T19:33:52.698Z,5.67
2022-10-02T19:36:24.203Z,4.80
2022-10-02T19:39:02.323Z,7.00
2022-10-02T19:41:36.498Z,5.40
2022-10-02T19:44:08.121Z,5.00
2022-10-02T19:46:43.538Z,4.60
2022-10-02T19:49:22.382Z,4.57
2022-10-02T19:51:49.030Z,5.50
2022-10-02T19:54:23.126Z,5.17
2022-10-02T19:56:59.250Z,5.00
2022-10-02T19:59:33.807Z,5.73
2022-10-02T20:02:12.423Z,6.53
2022-10-02T20:04:39.159Z,6.67
2022-10-02T20:07:06.134Z,6.03
2022-10-02T20:09:45.348Z,6.80
2022-10-02T20:12:21.635Z,7.10
2022-10-02T20:14:55.062Z,6.67
2022-10-02T20:17:22.015Z,9.50
2022-10-02T20:19:54.180Z,8.30
2022-10-02T20:22:46.538Z,7.63
2022-10-02T20:25:28.769Z,7.43
2022-10-02T20:28:21.950Z,8.33
2022-10-02T20:30:56.720Z,8.93
2022-10-02T20:33:54.543Z,12.20
2022-10-02T20:36:43.340Z,15.90
2022-10-02T20:39:18.566Z,22.80
2022-10-02T20:41:58.977Z,31.60
2022-10-02T20:44:29.279Z,38.50
2022-10-02T20:47:27.766Z,39.67
2022-10-02T20:50:12.038Z,22.67
2022-10-02T20:53:07.047Z,15.90
2022-10-02T20:55:42.594Z,10.20
2022-10-02T20:58:23.906Z,9.80
2022-10-02T21:01:05.624Z,10.17
2022-10-02T21:03:50.975Z,9.20
2022-10-02T21:06:42.483Z,10.93
2022-10-02T21:09:31.925Z,9.47
2022-10-02T21:12:14.843Z,6.70
2022-10-02T21:15:05.831Z,5.73
2022-10-02T21:17:46.869Z,5.83
2022-10-02T21:20:50.955Z,6.00
2022-10-02T21:23:39.500Z,6.10
2022-10-02T21:26:40.526Z,5.70
2022-10-02T21:29:41.207Z,5.70
2022-10-02T21:32:33.602Z,5.80
2022-10-02T21:35:24.709Z,5.57
2022-10-02T21:38:16.092Z,5.80
2022-10-02T21:41:27.850Z,5.33
2022-10-02T21:44:16.271Z,5.20
2022-10-02T21:47:13.753Z,5.50
2022-10-02T21:50:21.025Z,4.80
2022-10-02T21:53:13.225Z,5.43
2022-10-02T21:55:39.520Z,5.03
2022-10-02T21:58:28.003Z,5.43
2022-10-02T22:00:58.435Z,4.97
2022-10-02T22:03:54.386Z,5.37
2022-10-02T22:06:54.662Z,5.47
2022-10-02T22:09:27.597Z,5.10
2022-10-02T22:12:19.560Z,5.60
2022-10-02T22:14:53.716Z,5.63
2022-10-02T22:17:40.964Z,5.80
2022-10-02T22:20:40.167Z,9.37
2022-10-02T22:23:12.584Z,7.83
2022-10-02T22:26:12.478Z,6.10
2022-10-02T22:28:54.297Z,5.70
2022-10-02T22:31:37.967Z,5.20
2022-10-02T22:34:25.230Z,5.47
2022-10-02T22:37:03.442Z,4.67
2022-10-02T22:39:46.103Z,4.37
2022-10-02T22:42:20.472Z,4.37
2022-10-02T22:45:14.313Z,4.40
2022-10-02T22:47:51.763Z,4.67
2022-10-02T22:50:24.628Z,4.57
2022-10-02T22:53:05.915Z,4.90
2022-10-02T22:55:37.252Z,4.60
2022-10-02T22:58:15.869Z,4.50
2022-10-02T23:01:08.308Z,5.03
2022-10-02T23:03:53.687Z,4.50
2022-10-02T23:06:44.147Z,4.43
2022-10-02T23:09:22.389Z,4.70
2022-10-02T23:12:25.430Z,3.90
2022-10-02T23:15:12.543Z,4.00
2022-10-02T23:17:45.437Z,3.93
2022-10-02T23:20:15.628Z,4.13
2022-10-02T23:22:52.419Z,4.33
2022-10-02T23:25:33.923Z,3.77
2022-10-02T23:28:13.980Z,3.87
2022-10-02T23:30:49.402Z,3.80
2022-10-02T23:33:24.847Z,4.07
2022-10-02T23:36:35.079Z,3.60
2022-10-02T23:39:11.489Z,4.03
2022-10-02T23:41:49.193Z,5.37
2022-10-02T23:44:24.594Z,3.90
2022-10-02T23:46:50.987Z,3.63
2022-10-02T23:49:19.519Z,3.63
2022-10-02T23:51:57.928Z,4.43
2022-10-02T23:54:33.986Z,4.90
2022-10-02T23:57:12.721Z,4.67
2022-10-02T23:59:51.835Z,4.10
